Time;durP1;ratioP1;P1;durP2;ratioP2;P2;SDS_P1;SDS_P2;PMS_P1;PMS_P2;Temp;Humidity;BMP_temperature;BMP_pressure;BME280_temperature;BME280_humidity;BME280_pressure;Samples;Min_cycle;Max_cycle;Signal;HPM_P1;HPM_P2
2022/06/28 00:01:23;;;;;;;2.03;1.20;;;23.80;81.50;;;;;;5031263;28;20633;-76
2022/06/28 00:03:49;;;;;;;1.05;1.00;;;23.70;81.50;;;;;;5014649;28;20191;-76
2022/06/28 00:06:14;;;;;;;1.42;1.02;;;23.80;81.50;;;;;;5031741;28;20290;-76
2022/06/28 00:08:40;;;;;;;0.90;0.90;;;23.70;81.50;;;;;;5031427;28;20178;-76
2022/06/28 00:11:06;;;;;;;1.02;1.02;;;23.80;81.50;;;;;;5050538;28;20198;-76
2022/06/28 00:13:32;;;;;;;1.20;1.00;;;23.80;81.50;;;;;;5018716;28;20187;-76
2022/06/28 00:16:07;;;;;;;1.05;0.95;;;23.70;81.30;;;;;;5035753;28;20175;-76
2022/06/28 00:18:39;;;;;;;0.90;0.90;;;23.80;81.40;;;;;;5018657;28;20183;-76
2022/06/28 00:21:06;;;;;;;1.08;0.95;;;23.70;81.20;;;;;;5034967;28;20292;-77
2022/06/28 00:23:35;;;;;;;0.95;0.88;;;23.70;81.20;;;;;;5033714;28;20183;-77
2022/06/28 00:26:01;;;;;;;0.90;0.90;;;23.80;81.20;;;;;;5034525;28;20215;-76
2022/06/28 00:28:27;;;;;;;1.33;1.10;;;23.70;81.10;;;;;;5034920;28;20256;-76
2022/06/28 00:30:52;;;;;;;0.80;0.80;;;23.70;81.00;;;;;;5034857;28;20214;-75
2022/06/28 00:33:18;;;;;;;1.00;1.00;;;23.70;81.10;;;;;;5034798;28;20269;-76
2022/06/28 00:35:45;;;;;;;1.13;0.93;;;23.70;81.00;;;;;;5034515;28;20193;-76
2022/06/28 00:38:11;;;;;;;1.02;1.00;;;23.70;80.90;;;;;;5034620;28;20259;-76
2022/06/28 00:40:53;;;;;;;1.25;0.90;;;23.70;80.90;;;;;;5034798;28;20218;-75
2022/06/28 00:43:20;;;;;;;0.98;0.95;;;23.70;80.90;;;;;;5034871;28;20194;-76
2022/06/28 00:45:47;;;;;;;1.17;1.00;;;23.70;80.90;;;;;;5033664;28;20217;-76
2022/06/28 00:48:16;;;;;;;0.80;0.80;;;23.70;80.90;;;;;;5034910;28;20261;-76
2022/06/28 00:50:42;;;;;;;0.90;0.90;;;23.70;80.90;;;;;;5035601;28;20191;-76
2022/06/28 00:53:16;;;;;;;0.82;0.82;;;23.70;80.90;;;;;;5034429;28;20183;-75
2022/06/28 00:55:44;;;;;;;0.95;0.95;;;23.70;80.90;;;;;;5033874;28;20183;-76
2022/06/28 00:58:11;;;;;;;1.05;0.95;;;23.70;80.90;;;;;;5034597;28;20205;-76
2022/06/28 01:00:42;;;;;;;0.70;0.70;;;23.70;80.80;;;;;;5017917;28;20203;-77
2022/06/28 01:03:16;;;;;;;2.05;0.93;;;23.70;80.80;;;;;;5018184;28;20217;-76
2022/06/28 01:05:44;;;;;;;0.90;0.90;;;23.70;80.70;;;;;;5033980;28;20195;-77
2022/06/28 01:08:12;;;;;;;1.55;1.10;;;23.70;80.80;;;;;;5018365;28;20207;-76
2022/06/28 01:10:39;;;;;;;0.93;0.90;;;23.70;80.70;;;;;;5014369;28;20200;-76
2022/06/28 01:13:07;;;;;;;0.70;0.70;;;23.70;80.70;;;;;;5014339;28;20179;-76
2022/06/28 01:15:38;;;;;;;0.88;0.88;;;23.70;80.60;;;;;;5013989;28;20187;-76
2022/06/28 01:18:06;;;;;;;0.98;0.98;;;23.70;80.60;;;;;;5014568;28;20219;-76
2022/06/28 01:20:52;;;;;;;0.73;0.73;;;23.70;80.60;;;;;;5013732;28;20255;-76
2022/06/28 01:23:31;;;;;;;0.88;0.88;;;23.60;80.50;;;;;;5013020;28;20183;-76
2022/06/28 01:26:25;;;;;;;0.80;0.80;;;23.70;80.60;;;;;;5013350;28;20215;-76
2022/06/28 01:28:52;;;;;;;0.90;0.90;;;23.60;80.30;;;;;;5013953;28;20190;-77
2022/06/28 01:31:32;;;;;;;1.00;0.90;;;23.70;80.40;;;;;;5014040;28;20644;-77
2022/06/28 01:34:02;;;;;;;1.10;1.00;;;23.70;80.30;;;;;;5013889;28;20274;-77
2022/06/28 01:36:28;;;;;;;0.82;0.82;;;23.70;80.30;;;;;;5013610;28;20660;-76
2022/06/28 01:38:55;;;;;;;0.85;0.85;;;23.70;80.30;;;;;;5013938;28;20187;-76
2022/06/28 01:41:33;;;;;;;0.80;0.80;;;23.70;80.20;;;;;;5014055;28;20187;-76
2022/06/28 01:44:09;;;;;;;1.00;1.00;;;23.70;80.20;;;;;;5013918;28;20226;-76
2022/06/28 01:46:41;;;;;;;1.15;1.00;;;23.70;80.30;;;;;;5013158;28;20211;-76
2022/06/28 01:49:12;;;;;;;1.63;0.90;;;23.70;80.20;;;;;;5013670;28;20283;-76
2022/06/28 01:51:38;;;;;;;1.08;1.00;;;23.60;80.00;;;;;;5013935;28;20274;-76
2022/06/28 01:54:06;;;;;;;0.75;0.75;;;23.70;80.20;;;;;;5013552;28;20184;-76
2022/06/28 01:56:35;;;;;;;1.13;0.90;;;23.70;80.10;;;;;;5013347;28;20203;-76
2022/06/28 01:59:12;;;;;;;1.08;0.98;;;23.60;79.90;;;;;;5013794;28;20299;-77
2022/06/28 02:01:54;;;;;;;1.20;1.00;;;23.60;79.90;;;;;;5013739;28;20165;-76
2022/06/28 02:04:28;;;;;;;0.80;0.80;;;23.60;79.90;;;;;;5013201;28;20214;-74
2022/06/28 02:06:58;;;;;;;1.00;0.90;;;23.70;80.00;;;;;;5013320;28;20220;-76
2022/06/28 02:09:29;;;;;;;0.80;0.80;;;23.60;79.80;;;;;;4997825;28;20203;-77
2022/06/28 02:11:56;;;;;;;0.85;0.85;;;23.60;79.90;;;;;;5013167;28;20282;-76
2022/06/28 02:14:26;;;;;;;1.23;0.90;;;23.60;79.80;;;;;;5012650;28;20172;-76
2022/06/28 02:16:56;;;;;;;0.80;0.80;;;23.60;79.90;;;;;;5013049;28;20742;-76
2022/06/28 02:19:22;;;;;;;0.82;0.82;;;23.60;79.90;;;;;;5012914;28;20243;-77
2022/06/28 02:21:48;;;;;;;1.63;0.85;;;23.60;79.80;;;;;;5013311;28;20687;-76
2022/06/28 02:24:14;;;;;;;0.68;0.68;;;23.60;79.80;;;;;;5012811;28;20184;-76
2022/06/28 02:26:41;;;;;;;0.77;0.70;;;23.60;79.80;;;;;;5012121;28;20215;-77
2022/06/28 02:29:07;;;;;;;0.73;0.73;;;23.60;79.80;;;;;;5013108;28;20208;-76
2022/06/28 02:31:36;;;;;;;0.80;0.75;;;23.60;79.80;;;;;;5012984;28;20560;-77
2022/06/28 02:34:04;;;;;;;0.75;0.75;;;23.60;79.70;;;;;;5011822;28;20240;-76
2022/06/28 02:41:51;;;;;;;0.88;0.88;;;23.60;79.60;;;;;;5012716;28;20225;-77
2022/06/28 02:44:18;;;;;;;0.80;0.80;;;23.60;79.60;;;;;;5024696;28;20231;-77
2022/06/28 02:46:45;;;;;;;0.85;0.85;;;23.60;79.60;;;;;;5031614;28;20234;-77
2022/06/28 02:49:12;;;;;;;0.98;0.98;;;23.60;79.60;;;;;;5032398;28;20747;-77
2022/06/28 02:51:38;;;;;;;0.93;0.90;;;23.60;79.60;;;;;;5032440;28;20190;-76
2022/06/28 02:54:05;;;;;;;0.82;0.82;;;23.60;79.60;;;;;;5032317;28;20190;-76
2022/06/28 02:56:30;;;;;;;1.05;0.82;;;23.60;79.50;;;;;;5031509;28;20187;-76
2022/06/28 02:58:56;;;;;;;0.90;0.90;;;23.60;79.60;;;;;;5032010;28;20317;-77
2022/06/28 03:01:22;;;;;;;0.90;0.90;;;23.60;79.50;;;;;;5032107;28;20190;-76
2022/06/28 03:03:48;;;;;;;1.05;0.90;;;23.60;79.60;;;;;;5032034;28;20187;-77
2022/06/28 03:06:14;;;;;;;2.25;0.80;;;23.60;79.60;;;;;;5031606;28;20721;-77
2022/06/28 03:08:41;;;;;;;0.80;0.80;;;23.60;79.40;;;;;;5031879;28;20179;-77
2022/06/28 03:11:07;;;;;;;0.80;0.80;;;23.60;79.40;;;;;;5031844;28;20211;-77
2022/06/28 03:13:33;;;;;;;0.70;0.70;;;23.60;79.50;;;;;;5032146;28;20206;-77
2022/06/28 03:15:58;;;;;;;0.93;0.88;;;23.60;79.30;;;;;;5031594;28;20194;-77
2022/06/28 03:18:24;;;;;;;0.95;0.75;;;23.60;79.30;;;;;;5031722;28;20187;-77
2022/06/28 03:20:50;;;;;;;0.80;0.80;;;23.60;79.30;;;;;;5031543;28;20625;-76
2022/06/28 03:23:17;;;;;;;1.77;0.90;;;23.60;79.30;;;;;;5031356;28;20776;-77
2022/06/28 03:25:45;;;;;;;0.65;0.65;;;23.60;79.20;;;;;;5030996;28;20257;-77
2022/06/28 03:28:11;;;;;;;0.70;0.70;;;23.50;79.10;;;;;;5015221;28;20183;-77
2022/06/28 03:30:37;;;;;;;0.73;0.73;;;23.60;79.20;;;;;;5032709;28;20199;-77
2022/06/28 03:33:03;;;;;;;1.05;0.50;;;23.50;79.10;;;;;;5031627;28;20168;-77
2022/06/28 03:35:34;;;;;;;0.82;0.80;;;23.50;79.10;;;;;;5030990;28;20175;-77
2022/06/28 03:37:59;;;;;;;0.70;0.70;;;23.60;79.20;;;;;;5031578;28;20191;-77
2022/06/28 03:40:45;;;;;;;0.73;0.73;;;23.50;79.10;;;;;;5031571;28;20217;-77
2022/06/28 03:43:11;;;;;;;0.75;0.70;;;23.60;79.30;;;;;;5031406;28;20237;-76
2022/06/28 03:45:37;;;;;;;0.80;0.80;;;23.50;80.00;;;;;;5030462;28;20207;-76
2022/06/28 03:48:25;;;;;;;1.13;0.80;;;23.50;79.20;;;;;;5031617;28;20190;-76
2022/06/28 03:51:11;;;;;;;1.63;0.80;;;23.50;79.10;;;;;;5031462;28;20214;-76
2022/06/28 03:53:57;;;;;;;0.70;0.70;;;23.50;79.10;;;;;;5031696;28;20210;-76
2022/06/28 03:56:33;;;;;;;0.90;0.90;;;23.50;79.10;;;;;;5030878;28;20216;-77
2022/06/28 03:59:00;;;;;;;0.57;0.50;;;23.60;79.20;;;;;;5031183;28;20293;-76
2022/06/28 04:01:25;;;;;;;0.70;0.70;;;23.50;79.10;;;;;;5031481;28;20612;-77
2022/06/28 04:03:51;;;;;;;0.75;0.75;;;23.50;79.10;;;;;;5031407;28;20705;-77
2022/06/28 04:06:17;;;;;;;0.80;0.80;;;23.50;79.10;;;;;;5030715;28;20211;-76
2022/06/28 04:08:47;;;;;;;0.80;0.80;;;23.50;79.20;;;;;;5030956;28;20202;-77
2022/06/28 04:11:16;;;;;;;0.90;0.90;;;23.50;79.20;;;;;;5014991;28;20587;-76
2022/06/28 04:13:50;;;;;;;1.33;0.82;;;23.50;79.20;;;;;;5031007;28;20160;-76
2022/06/28 04:16:19;;;;;;;0.73;0.73;;;23.50;79.20;;;;;;5030763;28;20175;-76
2022/06/28 04:18:45;;;;;;;0.80;0.80;;;23.50;79.20;;;;;;5031471;28;20190;-76
2022/06/28 04:21:25;;;;;;;0.90;0.90;;;23.50;79.10;;;;;;5031285;28;20178;-76
2022/06/28 04:24:00;;;;;;;0.65;0.65;;;23.50;79.10;;;;;;5031116;28;20194;-76
2022/06/28 04:26:26;;;;;;;0.93;0.93;;;23.50;79.10;;;;;;5030469;28;20600;-76
2022/06/28 04:28:52;;;;;;;0.80;0.80;;;23.50;79.10;;;;;;5030947;28;20195;-75
2022/06/28 04:31:22;;;;;;;0.70;0.70;;;23.50;78.90;;;;;;5031489;28;20190;-76
2022/06/28 04:33:48;;;;;;;0.90;0.90;;;23.50;79.00;;;;;;5030959;28;20175;-75
2022/06/28 04:36:16;;;;;;;0.90;0.90;;;23.50;79.00;;;;;;5030552;28;20183;-76
2022/06/28 04:38:46;;;;;;;0.90;0.90;;;23.50;79.10;;;;;;5031269;28;20198;-76
2022/06/28 04:41:15;;;;;;;0.95;0.95;;;23.50;79.10;;;;;;5031341;28;20198;-75
2022/06/28 04:43:53;;;;;;;1.20;1.20;;;23.50;79.00;;;;;;5015944;28;20185;-76
2022/06/28 04:46:23;;;;;;;0.82;0.82;;;23.50;78.90;;;;;;5030123;28;20234;-76
2022/06/28 04:48:50;;;;;;;1.25;0.98;;;23.50;78.70;;;;;;5031583;28;20191;-75
2022/06/28 04:51:22;;;;;;;0.98;0.82;;;23.50;78.50;;;;;;5030817;28;20651;-75
2022/06/28 04:53:48;;;;;;;0.80;0.80;;;23.60;78.50;;;;;;5031023;28;20183;-74
2022/06/28 04:56:16;;;;;;;1.35;1.20;;;23.50;78.30;;;;;;5030053;28;20203;-75
2022/06/28 04:58:48;;;;;;;1.48;0.70;;;23.50;78.20;;;;;;5034720;28;20179;-73
2022/06/28 05:01:14;;;;;;;1.00;1.00;;;23.60;78.10;;;;;;5035029;28;20195;-75
2022/06/28 05:03:42;;;;;;;0.90;0.90;;;23.60;78.10;;;;;;5034928;28;20552;-76
2022/06/28 05:06:26;;;;;;;0.98;0.98;;;23.60;78.00;;;;;;5034361;28;20284;-75
2022/06/28 05:08:56;;;;;;;0.90;0.90;;;23.60;78.00;;;;;;5034895;28;20179;-76
2022/06/28 05:11:22;;;;;;;0.90;0.90;;;23.60;78.10;;;;;;5052059;28;20191;-76
2022/06/28 05:14:01;;;;;;;0.93;0.93;;;23.50;78.10;;;;;;5035940;28;20207;-77
2022/06/28 05:16:27;;;;;;;1.05;1.05;;;23.50;78.00;;;;;;5034595;28;20206;-76
2022/06/28 05:18:53;;;;;;;1.02;0.95;;;23.60;78.10;;;;;;5035170;28;20199;-76
2022/06/28 05:21:28;;;;;;;1.10;1.10;;;23.50;78.00;;;;;;5035119;28;20629;-76
2022/06/28 05:23:54;;;;;;;1.05;1.05;;;23.50;78.00;;;;;;5036038;28;20183;-76
2022/06/28 05:26:26;;;;;;;1.30;1.20;;;23.50;77.90;;;;;;5033962;28;20218;-75
2022/06/28 05:29:09;;;;;;;1.30;1.02;;;23.50;78.00;;;;;;5034034;28;20299;-75
2022/06/28 05:31:35;;;;;;;1.17;0.90;;;23.50;77.80;;;;;;5018042;28;20183;-75
2022/06/28 05:34:02;;;;;;;1.00;1.00;;;23.60;78.00;;;;;;5026230;28;20187;-75
2022/06/28 05:36:29;;;;;;;1.00;1.00;;;23.50;77.90;;;;;;5033201;28;20183;-75
2022/06/28 05:38:56;;;;;;;1.10;1.00;;;23.50;77.90;;;;;;5034297;28;20186;-75
2022/06/28 05:41:22;;;;;;;0.90;0.90;;;23.60;77.90;;;;;;5021154;28;20184;-75
2022/06/28 05:43:49;;;;;;;1.33;1.23;;;23.60;78.00;;;;;;5013979;28;20203;-75
2022/06/28 05:46:15;;;;;;;0.90;0.90;;;23.60;77.80;;;;;;5026717;28;20290;-76
2022/06/28 05:48:41;;;;;;;1.40;1.05;;;23.60;77.80;;;;;;5033845;28;20250;-75
2022/06/28 05:51:07;;;;;;;0.85;0.85;;;23.60;77.90;;;;;;5033726;28;20230;-75
2022/06/28 05:53:33;;;;;;;1.20;1.10;;;23.60;77.90;;;;;;5033559;28;20179;-75
2022/06/28 05:55:59;;;;;;;0.90;0.90;;;23.60;77.90;;;;;;5033385;28;20187;-76
2022/06/28 05:58:25;;;;;;;1.13;1.10;;;23.60;78.00;;;;;;5033616;28;20183;-76
2022/06/28 06:00:51;;;;;;;0.80;0.80;;;23.60;78.00;;;;;;5033826;28;20218;-75
2022/06/28 06:03:17;;;;;;;2.28;1.10;;;23.60;78.00;;;;;;5033907;28;20187;-75
2022/06/28 06:05:43;;;;;;;0.90;0.90;;;23.60;78.00;;;;;;5032902;28;20219;-75
2022/06/28 06:08:11;;;;;;;0.85;0.85;;;23.60;78.00;;;;;;5033389;28;20194;-76
2022/06/28 06:10:38;;;;;;;0.90;0.90;;;23.60;78.00;;;;;;5045674;28;20215;-75
2022/06/28 06:13:04;;;;;;;0.90;0.90;;;23.60;78.00;;;;;;5013870;28;20543;-76
2022/06/28 06:15:30;;;;;;;0.90;0.90;;;23.60;78.80;;;;;;5012912;28;20195;-76
2022/06/28 06:17:56;;;;;;;1.10;1.10;;;23.60;78.00;;;;;;5013980;28;20184;-76
2022/06/28 06:20:24;;;;;;;1.00;1.00;;;23.60;78.00;;;;;;5013799;28;20339;-75
2022/06/28 06:22:50;;;;;;;0.80;0.80;;;23.60;78.00;;;;;;5046809;28;20176;-75
2022/06/28 06:25:48;;;;;;;1.15;0.98;;;23.60;78.00;;;;;;5010444;28;20220;-78
2022/06/28 06:28:14;;;;;;;0.80;0.80;;;23.60;78.00;;;;;;5013961;28;20184;-75
2022/06/28 06:30:41;;;;;;;1.00;1.00;;;23.60;78.00;;;;;;5013894;28;20204;-76
2022/06/28 06:33:17;;;;;;;1.08;1.00;;;23.60;78.10;;;;;;5014471;28;20172;-73
2022/06/28 06:36:19;;;;;;;0.95;0.95;;;23.60;78.10;;;;;;5002017;28;20187;-74
2022/06/28 06:38:46;;;;;;;0.90;0.90;;;23.50;78.10;;;;;;5013521;28;20271;-76
2022/06/28 06:41:11;;;;;;;1.00;1.00;;;23.60;78.20;;;;;;5013000;28;20207;-76
2022/06/28 06:43:40;;;;;;;0.95;0.95;;;23.60;78.30;;;;;;4997175;28;20270;-76
2022/06/28 06:46:12;;;;;;;1.17;1.08;;;23.60;78.30;;;;;;4996969;28;20219;-76
2022/06/28 06:48:38;;;;;;;1.00;1.00;;;23.60;78.40;;;;;;4996657;28;20184;-76
2022/06/28 06:51:04;;;;;;;1.00;1.00;;;23.60;78.30;;;;;;4996246;28;20246;-76
2022/06/28 06:53:31;;;;;;;0.85;0.85;;;23.60;78.20;;;;;;5016725;28;20179;-75
2022/06/28 06:55:57;;;;;;;0.90;0.90;;;23.50;78.10;;;;;;5015809;28;20180;-76
2022/06/28 06:58:23;;;;;;;1.10;1.02;;;23.50;78.20;;;;;;5016366;28;20273;-76
2022/06/28 07:00:49;;;;;;;1.35;0.82;;;23.60;78.30;;;;;;5032814;28;20221;-76
2022/06/28 07:03:16;;;;;;;0.88;0.88;;;23.50;78.20;;;;;;5032537;28;20237;-76
2022/06/28 07:05:42;;;;;;;0.95;0.95;;;23.60;78.20;;;;;;5031733;28;20285;-76
2022/06/28 07:08:08;;;;;;;0.90;0.90;;;23.50;78.10;;;;;;5032516;28;20171;-76
2022/06/28 07:10:42;;;;;;;1.10;1.00;;;23.50;78.10;;;;;;5017358;28;20195;-76
2022/06/28 07:13:08;;;;;;;1.10;1.00;;;23.60;78.30;;;;;;5033156;28;20194;-75
2022/06/28 07:15:35;;;;;;;1.13;1.00;;;23.50;78.10;;;;;;5031892;28;20195;-76
2022/06/28 07:18:02;;;;;;;1.30;1.20;;;23.50;78.10;;;;;;5032931;28;20189;-76
2022/06/28 07:20:29;;;;;;;1.17;0.82;;;23.60;78.30;;;;;;5031975;28;20617;-76
2022/06/28 07:22:54;;;;;;;1.27;1.17;;;23.50;78.90;;;;;;5032959;28;20263;-75
2022/06/28 07:25:21;;;;;;;1.00;1.00;;;23.60;78.10;;;;;;5031887;28;20215;-76
2022/06/28 07:27:46;;;;;;;1.30;1.20;;;23.60;78.10;;;;;;5015993;28;20191;-76
2022/06/28 07:30:12;;;;;;;1.13;0.90;;;23.60;78.00;;;;;;5032802;28;20203;-76
2022/06/28 07:32:39;;;;;;;1.00;1.00;;;23.60;78.00;;;;;;5032637;28;20178;-78
2022/06/28 07:35:06;;;;;;;1.17;1.17;;;23.60;78.00;;;;;;5032073;28;20187;-76
2022/06/28 07:37:33;;;;;;;1.23;1.00;;;23.60;78.00;;;;;;5032346;28;20187;-75
2022/06/28 07:40:00;;;;;;;0.90;0.90;;;23.60;77.90;;;;;;5032616;28;20195;-75
2022/06/28 07:42:45;;;;;;;1.50;1.00;;;23.60;77.80;;;;;;5033813;28;20171;-77
2022/06/28 07:45:29;;;;;;;1.48;1.00;;;23.60;77.90;;;;;;5032218;28;20226;-76
2022/06/28 07:48:08;;;;;;;1.20;1.10;;;23.60;77.80;;;;;;5017994;28;20167;-76
2022/06/28 07:53:19;;;;;;;1.40;1.30;;;23.70;78.00;;;;;;5032481;28;20187;-75
2022/06/28 07:56:04;;;;;;;1.20;1.15;;;23.70;78.00;;;;;;5031532;28;20187;-75
2022/06/28 07:58:33;;;;;;;1.30;1.20;;;23.70;78.00;;;;;;5032204;28;20276;-75
2022/06/28 08:01:01;;;;;;;1.90;1.30;;;23.70;77.90;;;;;;5032397;28;20730;-75
2022/06/28 08:03:27;;;;;;;1.27;1.17;;;23.70;77.80;;;;;;5016185;28;20183;-75
2022/06/28 08:05:53;;;;;;;1.20;1.10;;;23.70;77.80;;;;;;5032797;28;20257;-75
2022/06/28 08:08:20;;;;;;;1.20;1.10;;;23.70;77.70;;;;;;5032914;28;20183;-76
2022/06/28 08:10:46;;;;;;;1.42;1.10;;;23.70;77.50;;;;;;5032936;28;20214;-76
2022/06/28 08:13:12;;;;;;;1.10;0.98;;;23.60;77.40;;;;;;5016876;28;20225;-79
2022/06/28 08:15:39;;;;;;;1.27;1.17;;;23.70;77.40;;;;;;5016376;28;20195;-75
2022/06/28 08:18:06;;;;;;;1.30;1.15;;;23.70;77.60;;;;;;5033259;28;20191;-75
2022/06/28 08:20:33;;;;;;;1.10;1.00;;;23.70;77.70;;;;;;5031429;28;20213;-76
2022/06/28 08:23:02;;;;;;;1.20;1.02;;;23.70;77.80;;;;;;5031336;28;20210;-75
2022/06/28 08:25:28;;;;;;;1.40;1.20;;;23.70;77.90;;;;;;5014376;28;20294;-79
2022/06/28 08:27:54;;;;;;;1.20;1.10;;;23.70;78.00;;;;;;5031238;28;20175;-75
2022/06/28 08:30:20;;;;;;;1.38;1.30;;;23.70;77.90;;;;;;5031117;28;20686;-76
2022/06/28 08:32:46;;;;;;;1.75;1.23;;;23.70;77.90;;;;;;5033112;28;20266;-75
2022/06/28 08:35:12;;;;;;;0.90;0.90;;;23.70;77.90;;;;;;5017887;28;20652;-76
2022/06/28 08:37:38;;;;;;;1.23;1.15;;;23.70;78.00;;;;;;5034997;28;20203;-76
2022/06/28 08:40:04;;;;;;;1.38;1.20;;;23.70;77.90;;;;;;5018810;28;20239;-75
2022/06/28 08:42:35;;;;;;;1.20;1.10;;;23.70;78.00;;;;;;5034870;28;20183;-76
2022/06/28 08:45:02;;;;;;;1.23;1.13;;;23.70;78.00;;;;;;5018225;28;20693;-76
2022/06/28 08:47:33;;;;;;;1.30;1.20;;;23.70;78.00;;;;;;5034694;28;20562;-76
2022/06/28 08:50:10;;;;;;;1.20;1.10;;;23.70;77.90;;;;;;5034717;28;20203;-75
2022/06/28 08:52:36;;;;;;;1.30;1.20;;;23.70;77.90;;;;;;5034703;28;20183;-76
2022/06/28 08:55:06;;;;;;;1.10;1.00;;;23.70;77.90;;;;;;5034619;28;20175;-78
2022/06/28 08:57:33;;;;;;;1.25;1.10;;;23.70;78.60;;;;;;5034575;28;20191;-75
2022/06/28 08:59:59;;;;;;;1.15;1.08;;;23.70;77.60;;;;;;5035912;28;20191;-76
2022/06/28 09:02:25;;;;;;;1.35;1.30;;;23.70;77.50;;;;;;5034496;28;20186;-76
2022/06/28 09:04:53;;;;;;;1.20;1.10;;;23.70;77.30;;;;;;5034623;28;20190;-76
2022/06/28 09:07:20;;;;;;;1.40;1.30;;;23.70;77.50;;;;;;5034008;28;20290;-76
2022/06/28 09:09:48;;;;;;;1.25;1.15;;;23.70;77.50;;;;;;5034329;28;20225;-75
2022/06/28 09:12:14;;;;;;;1.30;1.20;;;23.80;77.50;;;;;;5025098;28;20647;-76
2022/06/28 09:14:40;;;;;;;1.35;1.25;;;23.80;77.30;;;;;;5033920;28;20192;-76
2022/06/28 09:17:22;;;;;;;1.48;1.23;;;23.80;77.10;;;;;;5033682;28;20665;-76
2022/06/28 09:20:05;;;;;;;1.35;1.25;;;23.80;77.20;;;;;;5017730;28;20246;-75
2022/06/28 09:22:44;;;;;;;1.50;1.40;;;23.80;77.00;;;;;;5017580;28;20193;-76
2022/06/28 09:25:26;;;;;;;0.90;0.90;;;23.80;77.00;;;;;;5033625;28;20187;-75
2022/06/28 09:27:58;;;;;;;1.15;1.10;;;23.80;77.00;;;;;;5050586;28;20265;-76
2022/06/28 09:30:27;;;;;;;1.10;1.10;;;23.80;77.00;;;;;;5033889;28;20203;-75
2022/06/28 09:32:53;;;;;;;0.93;0.93;;;23.80;77.00;;;;;;5034014;28;20186;-76
2022/06/28 09:35:19;;;;;;;1.20;1.10;;;23.70;77.00;;;;;;5017030;28;20266;-76
2022/06/28 09:37:47;;;;;;;1.00;1.00;;;23.70;76.90;;;;;;5033706;28;20295;-76
2022/06/28 09:40:14;;;;;;;1.17;1.10;;;23.80;77.00;;;;;;5033573;28;20721;-76
2022/06/28 09:42:47;;;;;;;0.95;0.95;;;23.80;77.00;;;;;;5016947;28;20282;-75
2022/06/28 09:45:16;;;;;;;1.50;1.23;;;23.80;77.00;;;;;;5032844;28;20190;-75
2022/06/28 09:47:47;;;;;;;1.30;1.20;;;23.80;76.80;;;;;;5033380;28;20180;-75
2022/06/28 09:50:19;;;;;;;2.28;1.10;;;23.80;76.80;;;;;;5033793;28;20290;-75
2022/06/28 09:52:46;;;;;;;1.35;1.30;;;23.80;76.60;;;;;;5033727;28;20607;-76
2022/06/28 09:55:17;;;;;;;1.58;1.30;;;23.80;76.60;;;;;;5032559;28;20210;-74
2022/06/28 09:57:46;;;;;;;1.25;1.20;;;23.80;76.50;;;;;;5034630;28;20262;-76
2022/06/28 10:00:15;;;;;;;1.50;1.40;;;23.80;76.60;;;;;;5033399;28;20242;-77
2022/06/28 10:02:42;;;;;;;1.15;1.15;;;23.80;76.50;;;;;;5016794;28;20617;-75
2022/06/28 10:05:12;;;;;;;0.90;0.90;;;23.80;76.50;;;;;;5016688;28;20219;-75
2022/06/28 10:07:39;;;;;;;1.50;1.40;;;23.80;76.50;;;;;;5016819;28;20184;-76
2022/06/28 10:10:09;;;;;;;1.45;1.35;;;23.80;76.40;;;;;;5033819;28;20206;-76
2022/06/28 10:15:24;;;;;;;1.30;1.20;;;23.80;76.40;;;;;;5031325;28;20187;-78
2022/06/28 10:17:57;;;;;;;1.40;1.30;;;23.80;76.50;;;;;;5031942;28;20190;-76
2022/06/28 10:20:32;;;;;;;1.20;1.10;;;23.80;76.40;;;;;;5014563;28;20277;-75
2022/06/28 10:23:22;;;;;;;1.50;1.40;;;23.80;76.30;;;;;;5014786;28;20598;-76
2022/06/28 10:26:08;;;;;;;1.40;1.30;;;23.80;76.20;;;;;;5013244;28;20224;-75
2022/06/28 10:28:42;;;;;;;1.48;1.25;;;23.80;76.30;;;;;;5013258;28;20234;-76
2022/06/28 10:31:23;;;;;;;1.65;1.20;;;23.80;76.30;;;;;;5013947;28;20208;-75
2022/06/28 10:33:58;;;;;;;1.38;1.27;;;23.80;76.30;;;;;;4997826;28;20191;-76
2022/06/28 10:36:27;;;;;;;1.23;1.13;;;23.80;76.30;;;;;;5019728;28;20274;-77
2022/06/28 10:39:08;;;;;;;1.40;1.30;;;23.80;76.20;;;;;;5030392;28;20188;-75
2022/06/28 10:41:44;;;;;;;1.42;1.33;;;23.80;76.80;;;;;;5014568;28;20184;-77
2022/06/28 10:44:22;;;;;;;1.48;1.38;;;23.80;76.00;;;;;;5014188;28;20663;-75
2022/06/28 10:47:09;;;;;;;1.63;1.10;;;23.80;76.00;;;;;;4996639;28;20215;-76
2022/06/28 10:49:48;;;;;;;1.55;1.15;;;23.80;76.20;;;;;;5013864;28;20208;-76
2022/06/28 10:52:16;;;;;;;1.17;1.17;;;23.80;76.10;;;;;;5031186;28;20282;-76
2022/06/28 10:55:04;;;;;;;1.85;1.40;;;23.80;76.30;;;;;;4997048;28;20724;-75
2022/06/28 10:57:30;;;;;;;1.20;1.15;;;23.80;76.10;;;;;;5013872;28;20202;-76
2022/06/28 11:00:01;;;;;;;1.30;1.20;;;23.80;76.00;;;;;;4997866;28;20212;-76
2022/06/28 11:02:46;;;;;;;1.50;1.40;;;23.80;76.00;;;;;;5028835;28;20627;-76
2022/06/28 11:05:12;;;;;;;1.35;1.05;;;23.80;75.80;;;;;;5033742;28;20578;-76
2022/06/28 11:07:41;;;;;;;1.30;1.20;;;23.80;75.70;;;;;;5034036;28;20175;-76
2022/06/28 11:10:11;;;;;;;1.50;1.40;;;23.80;75.70;;;;;;5034681;28;20207;-76
2022/06/28 11:12:41;;;;;;;1.33;1.13;;;23.90;75.90;;;;;;5034417;28;20175;-76
2022/06/28 11:15:09;;;;;;;1.30;1.20;;;23.80;75.90;;;;;;5034657;28;20257;-75
2022/06/28 11:17:43;;;;;;;1.20;1.10;;;23.80;75.80;;;;;;5034182;28;20186;-75
2022/06/28 11:20:14;;;;;;;1.35;1.25;;;23.80;75.90;;;;;;5034375;28;20222;-76
2022/06/28 11:22:46;;;;;;;1.25;1.20;;;23.80;75.80;;;;;;5033564;28;20283;-76
2022/06/28 11:25:24;;;;;;;1.95;1.50;;;23.80;75.90;;;;;;5032398;28;20280;-77
2022/06/28 11:27:56;;;;;;;1.55;1.40;;;23.80;75.90;;;;;;5032139;28;20175;-76
2022/06/28 11:30:28;;;;;;;1.70;1.60;;;23.80;75.80;;;;;;5033394;28;20210;-77
2022/06/28 11:32:59;;;;;;;1.60;1.50;;;23.80;75.60;;;;;;5032425;28;20179;-76
2022/06/28 11:35:30;;;;;;;1.33;1.23;;;23.80;75.80;;;;;;5031608;28;20218;-76
2022/06/28 11:38:08;;;;;;;1.50;1.40;;;23.80;75.60;;;;;;5032362;28;20183;-76
2022/06/28 11:40:49;;;;;;;2.25;1.27;;;23.80;75.70;;;;;;5032391;28;20206;-76
2022/06/28 11:43:19;;;;;;;1.30;1.25;;;23.80;75.70;;;;;;5032238;28;20211;-77
2022/06/28 11:45:50;;;;;;;1.30;1.20;;;23.80;75.80;;;;;;5032080;28;20218;-76
2022/06/28 11:48:19;;;;;;;1.15;1.15;;;23.80;75.70;;;;;;5032379;28;20179;-76
2022/06/28 11:50:55;;;;;;;1.05;1.05;;;23.80;75.70;;;;;;5032104;28;20226;-77
2022/06/28 11:53:22;;;;;;;1.50;1.40;;;23.90;76.00;;;;;;5032016;28;20175;-76
2022/06/28 11:55:53;;;;;;;1.55;1.40;;;23.80;75.70;;;;;;5031817;28;20191;-76
2022/06/28 11:58:32;;;;;;;1.50;1.40;;;23.90;75.90;;;;;;5015434;28;20183;-76
2022/06/28 12:01:15;;;;;;;1.88;1.30;;;23.90;75.80;;;;;;5031616;28;20211;-78
2022/06/28 12:03:43;;;;;;;1.30;1.20;;;23.80;75.50;;;;;;5031472;28;20183;-76
2022/06/28 12:06:19;;;;;;;1.40;1.30;;;23.90;75.70;;;;;;5030747;28;20234;-76
2022/06/28 12:08:53;;;;;;;1.33;1.23;;;23.90;75.70;;;;;;5031013;28;20183;-76
2022/06/28 12:11:49;;;;;;;1.48;1.38;;;23.90;75.80;;;;;;5032287;28;20182;-76
2022/06/28 12:14:21;;;;;;;1.30;1.20;;;23.90;75.80;;;;;;5030930;28;20677;-75
2022/06/28 12:17:03;;;;;;;1.45;1.35;;;23.80;75.80;;;;;;5030572;28;20237;-76
2022/06/28 12:19:32;;;;;;;2.55;1.50;;;23.90;75.90;;;;;;5031171;28;20218;-76
2022/06/28 12:22:10;;;;;;;1.10;1.10;;;23.80;75.80;;;;;;5031446;28;20179;-76
2022/06/28 12:24:54;;;;;;;1.48;1.25;;;23.90;75.90;;;;;;5026959;28;20671;-75
2022/06/28 12:27:27;;;;;;;1.75;1.45;;;23.90;76.10;;;;;;5010608;28;20291;-76
2022/06/28 12:29:58;;;;;;;1.40;1.30;;;23.80;76.00;;;;;;5012311;28;20206;-76
2022/06/28 12:32:25;;;;;;;1.30;1.30;;;23.80;76.10;;;;;;5011118;28;20609;-76
2022/06/28 12:35:07;;;;;;;1.55;1.23;;;23.90;76.20;;;;;;5011278;28;20184;-76
2022/06/28 12:37:33;;;;;;;1.58;1.48;;;23.90;76.20;;;;;;5010603;28;20176;-76
2022/06/28 12:40:00;;;;;;;1.33;1.27;;;23.90;76.10;;;;;;4994820;28;20216;-76
2022/06/28 12:42:27;;;;;;;1.65;1.55;;;23.90;76.20;;;;;;5011476;28;20216;-75
2022/06/28 12:44:55;;;;;;;1.52;1.42;;;23.90;76.20;;;;;;5010945;28;20686;-76
2022/06/28 12:47:20;;;;;;;1.60;1.50;;;23.80;76.10;;;;;;5010379;28;20219;-76
2022/06/28 12:49:46;;;;;;;1.73;1.40;;;23.80;76.30;;;;;;4999859;28;20199;-76
2022/06/28 12:52:12;;;;;;;1.67;1.58;;;23.90;76.30;;;;;;5014612;28;20183;-76
2022/06/28 12:54:38;;;;;;;1.77;1.40;;;23.90;76.40;;;;;;5030562;28;20179;-76
2022/06/28 12:57:05;;;;;;;1.70;1.60;;;23.90;76.40;;;;;;5030117;28;20188;-76
2022/06/28 12:59:30;;;;;;;2.97;1.85;;;23.80;76.20;;;;;;5047317;28;20218;-76
2022/06/28 13:01:58;;;;;;;1.60;1.50;;;23.90;76.30;;;;;;5047572;28;20184;-76
2022/06/28 13:04:25;;;;;;;1.90;1.70;;;23.90;76.30;;;;;;5030572;28;20190;-76
2022/06/28 13:06:50;;;;;;;2.45;1.70;;;23.90;76.30;;;;;;5030088;28;20211;-76
2022/06/28 13:09:16;;;;;;;1.55;1.40;;;23.90;76.30;;;;;;5030382;28;20253;-76
2022/06/28 13:11:42;;;;;;;1.67;1.58;;;23.90;76.30;;;;;;5030659;28;20596;-76
2022/06/28 13:14:08;;;;;;;2.67;1.90;;;23.90;76.30;;;;;;5014063;28;20194;-76